CheckWX is a tool to help pilots better visualize weather data.  It is not intended as a substitute for an official pre-flight weather briefing.

12:42:35 UTC

DAAJ TAF
Djanet Inedbirene Airport
Djanet, Algeria
TAF DAAJ 221100Z 2212/2312 32010KT CAVOK BECMG 2220/2223 VRB02KT BECMG 2306/2310 36010KT

Mar-22@
12:00 UTC

Mar-22 @ 12:00 UTC

Mar-22@
20:00 UTC

Mar-22 @ 20:00 UTC

TAF DAAJ 221100Z 2212/2312 32010KT CAVOK
Wind
  • 320° at 10 KTS
Conditions
No significant weather
Cloud Levels
  • No significant clouds

Mar-22@
20:00 UTC

Mar-22 @ 20:00 UTC

Mar-23@
06:00 UTC

Mar-23 @ 06:00 UTC

BECMG 2220/2223 VRB02KT

Becoming

Becoming Conditions expected by Fri, Mar 22, 2019 @ 23:00 UTC

Wind
  • Variable at 2 KTS
Conditions
No significant weather
Cloud Levels
  • No significant clouds

Mar-23@
06:00 UTC

Mar-23 @ 06:00 UTC

Mar-23@
12:00 UTC

Mar-23 @ 12:00 UTC

BECMG 2306/2310 36010KT

Becoming

Becoming Conditions expected by Sat, Mar 23, 2019 @ 10:00 UTC

Wind
  • 360° at 10 KTS
Conditions
No significant weather
Cloud Levels
  • No significant clouds